Time;durP1;ratioP1;P1;durP2;ratioP2;P2;SDS_P1;SDS_P2;PMS_P1;PMS_P2;Temp;Humidity;BMP_temperature;BMP_pressure;BME280_temperature;BME280_humidity;BME280_pressure;Samples;Min_cycle;Max_cycle;Signal;HPM_P1;HPM_P2
2023/10/21 00:00:39;;;;;;;199.57;40.83;;;7.80;99.90;;;7.76;100.00;97446.44;5031920;28;20048;-78
2023/10/21 00:03:05;;;;;;;148.30;39.40;;;7.80;99.90;;;7.74;100.00;97441.28;5031866;28;20199;-78
2023/10/21 00:05:30;;;;;;;136.50;38.30;;;7.70;99.90;;;7.80;100.00;97457.53;5031680;28;20025;-79
2023/10/21 00:07:56;;;;;;;113.82;35.63;;;7.70;99.90;;;7.80;100.00;97457.53;5016944;28;20041;-78
2023/10/21 00:10:22;;;;;;;119.18;35.15;;;7.70;99.90;;;7.79;100.00;97462.19;5031983;28;20025;-79
2023/10/21 00:12:48;;;;;;;142.45;36.45;;;7.70;99.90;;;7.81;100.00;97470.03;5031784;28;20481;-79
2023/10/21 00:15:14;;;;;;;207.55;39.92;;;7.70;99.90;;;7.76;100.00;97476.28;5034127;28;20057;-78
2023/10/21 00:17:40;;;;;;;234.80;40.30;;;7.70;99.90;;;7.75;100.00;97471.97;5030266;28;20065;-78
2023/10/21 00:20:06;;;;;;;293.10;41.35;;;7.90;99.90;;;7.74;100.00;97454.06;5031539;28;20485;-78
2023/10/21 00:22:33;;;;;;;309.30;41.63;;;7.90;99.90;;;7.81;100.00;97449.13;5030914;28;20029;-79
2023/10/21 00:25:00;;;;;;;293.75;43.10;;;7.90;99.90;;;7.85;100.00;97450.22;5031754;28;20120;-79
2023/10/21 00:27:26;;;;;;;311.58;43.42;;;8.00;99.90;;;7.85;100.00;97447.50;5031616;28;20036;-79
2023/10/21 00:29:52;;;;;;;322.33;43.85;;;8.00;99.90;;;7.87;100.00;97434.44;5031185;28;20029;-79
2023/10/21 00:32:18;;;;;;;361.15;46.47;;;8.00;99.90;;;7.88;100.00;97438.78;5025210;28;20061;-79
2023/10/21 00:34:44;;;;;;;422.23;48.33;;;8.00;99.90;;;7.84;100.00;97436.94;5013284;28;20469;-79
2023/10/21 00:37:10;;;;;;;406.23;45.50;;;8.00;99.90;;;7.85;100.00;97430.41;5029386;28;20025;-79
2023/10/21 00:39:37;;;;;;;458.27;49.67;;;8.00;99.90;;;7.88;100.00;97425.22;5031238;28;20048;-79
2023/10/21 00:42:05;;;;;;;379.55;45.95;;;8.00;99.90;;;7.92;100.00;97428.19;5030749;28;20477;-79
2023/10/21 00:44:32;;;;;;;300.52;43.10;;;8.00;99.90;;;7.94;100.00;97431.44;5031231;28;20036;-79
2023/10/21 00:46:59;;;;;;;227.60;40.40;;;8.00;99.90;;;7.92;100.00;97450.72;5046146;28;20037;-79
2023/10/21 00:49:28;;;;;;;314.52;43.22;;;8.00;99.90;;;7.94;100.00;97449.63;5031946;28;20087;-80
2023/10/21 00:51:55;;;;;;;391.67;44.45;;;8.00;99.90;;;7.94;100.00;97453.16;5025880;28;20060;-80
2023/10/21 00:54:24;;;;;;;341.45;44.25;;;8.00;99.90;;;7.95;100.00;97448.53;5025356;28;20478;-79
2023/10/21 00:56:51;;;;;;;417.77;44.92;;;8.00;99.90;;;8.00;100.00;97446.63;5028652;28;20033;-79
2023/10/21 00:59:17;;;;;;;299.95;41.83;;;8.10;99.90;;;8.05;100.00;97457.44;5030909;28;20579;-79
2023/10/21 01:01:44;;;;;;;512.60;48.50;;;8.10;99.90;;;8.03;100.00;97466.97;5046231;28;20033;-79
2023/10/21 01:04:12;;;;;;;449.83;45.78;;;8.10;99.90;;;8.01;100.00;97474.59;5027924;28;20041;-80
2023/10/21 01:06:38;;;;;;;439.25;45.05;;;8.00;99.90;;;8.02;100.00;97484.34;5028479;28;20049;-77
2023/10/21 01:09:04;;;;;;;336.02;42.40;;;8.00;99.90;;;7.99;100.00;97488.44;5028140;28;20046;-78
2023/10/21 01:11:30;;;;;;;397.50;43.03;;;8.10;99.90;;;8.01;100.00;97488.16;5028153;28;20033;-78
2023/10/21 01:13:56;;;;;;;403.08;43.75;;;8.00;99.90;;;7.95;100.00;97476.50;5025290;28;20034;-79
2023/10/21 01:16:23;;;;;;;296.45;39.03;;;8.10;99.90;;;7.91;100.00;97484.38;5030310;28;20500;-78
2023/10/21 01:18:48;;;;;;;275.52;37.10;;;8.00;99.90;;;7.80;100.00;97490.94;5028043;28;20044;-79
2023/10/21 01:21:14;;;;;;;354.48;42.35;;;8.00;99.90;;;7.77;100.00;97486.06;5028541;28;20037;-78
2023/10/21 01:23:40;;;;;;;230.48;37.97;;;8.00;99.90;;;7.79;100.00;97497.47;5042200;28;20109;-78
2023/10/21 01:26:07;;;;;;;258.00;38.47;;;7.90;99.90;;;7.74;100.00;97489.34;5029856;28;20041;-79
2023/10/21 01:28:33;;;;;;;186.98;36.97;;;7.90;99.90;;;7.82;100.00;97487.94;5037628;28;20038;-78
2023/10/21 01:31:00;;;;;;;210.00;35.75;;;7.90;99.90;;;7.80;100.00;97493.66;5035979;28;20083;-79
2023/10/21 01:33:26;;;;;;;316.75;39.10;;;7.90;99.90;;;7.78;100.00;97487.69;5026140;28;20050;-78
2023/10/21 01:35:52;;;;;;;298.70;39.60;;;8.00;99.90;;;7.75;100.00;97485.53;5034345;28;20548;-79
2023/10/21 01:38:18;;;;;;;299.52;38.97;;;7.90;99.90;;;7.79;100.00;97494.75;5042457;28;20038;-79
2023/10/21 01:40:45;;;;;;;447.63;43.35;;;7.90;99.90;;;7.77;100.00;97483.34;5032519;28;20121;-79
2023/10/21 01:43:10;;;;;;;298.60;38.42;;;7.90;99.90;;;7.77;100.00;97484.16;5011947;28;20034;-79
2023/10/21 01:45:37;;;;;;;190.48;35.22;;;7.90;99.90;;;7.81;100.00;97481.72;5030093;28;20052;-79
2023/10/21 01:48:05;;;;;;;274.30;37.70;;;7.90;99.90;;;7.84;100.00;97474.94;5028439;28;20044;-79
2023/10/21 01:50:31;;;;;;;265.33;37.25;;;7.90;99.90;;;7.88;100.00;97465.94;5016535;28;20465;-79
2023/10/21 01:52:58;;;;;;;179.60;33.55;;;7.90;99.90;;;7.92;100.00;97469.72;5023941;28;20029;-79
2023/10/21 01:55:24;;;;;;;191.93;34.30;;;7.90;99.90;;;7.96;100.00;97482.75;5029821;28;20057;-80
2023/10/21 01:57:50;;;;;;;239.15;36.03;;;7.90;99.90;;;7.95;100.00;97502.81;5027802;28;20038;-80
2023/10/21 02:00:20;;;;;;;261.90;36.70;;;8.00;99.90;;;8.00;100.00;97511.78;5025346;28;20045;-80
2023/10/21 02:02:55;;;;;;;379.88;41.22;;;8.00;99.90;;;8.02;100.00;97515.03;5040884;28;20528;-80
2023/10/21 02:05:24;;;;;;;279.38;37.30;;;8.00;99.90;;;8.05;100.00;97530.75;5017145;28;20117;-79
2023/10/21 02:07:51;;;;;;;331.02;38.80;;;8.00;99.90;;;8.06;100.00;97534.28;5031404;28;20079;-80
2023/10/21 02:10:18;;;;;;;281.75;38.00;;;8.00;99.90;;;8.08;100.00;97532.13;5029312;28;20029;-80
2023/10/21 02:12:44;;;;;;;115.40;32.08;;;8.10;99.90;;;8.17;100.00;97540.50;5029683;28;20061;-80
2023/10/21 02:15:14;;;;;;;109.95;30.67;;;8.10;99.90;;;8.18;100.00;97540.22;5032711;28;20070;-80
2023/10/21 02:17:42;;;;;;;245.75;35.67;;;8.10;99.90;;;8.26;100.00;97551.63;5023638;28;20057;-80
2023/10/21 02:20:12;;;;;;;142.35;32.38;;;8.10;99.90;;;8.23;100.00;97547.53;5029095;28;20120;-80
2023/10/21 02:22:38;;;;;;;302.13;37.00;;;8.20;99.90;;;8.26;100.00;97563.28;5031385;28;20072;-80
2023/10/21 02:25:06;;;;;;;132.20;32.30;;;8.20;99.90;;;8.27;100.00;97569.53;5025893;28;20038;-80
2023/10/21 02:27:32;;;;;;;169.60;31.95;;;8.20;99.90;;;8.27;100.00;97572.25;5041057;28;20440;-80
2023/10/21 02:29:58;;;;;;;104.25;29.75;;;8.20;99.90;;;8.27;100.00;97581.19;5032458;28;20098;-80
2023/10/21 02:32:24;;;;;;;112.90;30.58;;;8.20;99.90;;;8.31;100.00;97584.97;5034559;28;20041;-80
2023/10/21 02:34:55;;;;;;;164.82;31.67;;;8.20;99.90;;;8.35;100.00;97593.41;5033582;28;20041;-80
2023/10/21 02:37:22;;;;;;;150.00;30.17;;;8.20;99.90;;;8.32;100.00;97588.53;5018037;28;20122;-80
2023/10/21 02:39:48;;;;;;;274.67;34.13;;;8.30;99.90;;;8.34;100.00;97598.00;5033360;28;20477;-79
2023/10/21 02:42:14;;;;;;;179.95;33.50;;;8.30;99.90;;;8.37;100.00;97588.50;5032459;28;20030;-79
2023/10/21 02:44:40;;;;;;;113.85;30.00;;;8.30;99.90;;;8.39;100.00;97589.03;5032039;28;20044;-79
2023/10/21 02:47:06;;;;;;;122.60;31.27;;;8.30;99.90;;;8.40;100.00;97584.44;5038991;28;20148;-79
2023/10/21 02:49:32;;;;;;;231.75;33.97;;;8.40;99.90;;;8.40;100.00;97581.72;5019364;28;20033;-79
2023/10/21 02:51:58;;;;;;;193.68;35.60;;;8.40;99.90;;;8.37;100.00;97591.22;5033429;28;20041;-78
2023/10/21 02:54:25;;;;;;;239.18;35.47;;;8.40;99.90;;;8.38;100.00;97587.41;5033270;28;20413;-79
2023/10/21 02:56:51;;;;;;;263.10;35.72;;;8.40;99.90;;;8.43;100.00;97579.22;5048675;28;20045;-78
2023/10/21 02:59:17;;;;;;;228.25;35.10;;;8.40;99.90;;;8.38;100.00;97581.19;5033288;28;20033;-79
2023/10/21 03:01:42;;;;;;;215.43;35.67;;;8.40;99.90;;;8.38;100.00;97576.53;5032533;28;20045;-78
2023/10/21 03:04:08;;;;;;;270.73;39.83;;;8.40;99.90;;;8.38;100.00;97575.75;5033315;28;20033;-79
2023/10/21 03:06:34;;;;;;;237.60;38.20;;;8.40;99.90;;;8.35;100.00;97577.94;5024966;28;20040;-78
2023/10/21 03:09:00;;;;;;;192.75;38.03;;;8.40;99.90;;;8.35;100.00;97574.38;5021762;28;20136;-79
2023/10/21 03:11:26;;;;;;;244.20;38.55;;;8.40;99.90;;;8.38;100.00;97570.31;5016596;28;20083;-79
2023/10/21 03:13:52;;;;;;;220.70;38.33;;;8.40;99.90;;;8.37;100.00;97577.63;5032990;28;20057;-79
2023/10/21 03:16:17;;;;;;;211.63;37.55;;;8.40;99.90;;;8.40;100.00;97579.78;5032968;28;20046;-79
2023/10/21 03:18:45;;;;;;;142.75;36.00;;;8.40;99.90;;;8.39;100.00;97575.44;5019179;28;20038;-80
2023/10/21 03:21:13;;;;;;;159.23;35.55;;;8.40;99.90;;;8.48;100.00;97578.41;5033508;28;20087;-80
2023/10/21 03:23:39;;;;;;;135.02;36.55;;;8.50;99.90;;;8.46;100.00;97580.59;5032531;28;20046;-80
2023/10/21 03:26:07;;;;;;;158.85;35.05;;;8.50;99.90;;;8.54;100.00;97560.22;5032519;28;20116;-80
2023/10/21 03:28:34;;;;;;;174.32;37.90;;;8.60;99.90;;;8.54;100.00;97565.66;5032696;28;20087;-80
2023/10/21 03:31:04;;;;;;;136.55;36.20;;;8.60;99.90;;;8.57;100.00;97557.72;5031736;28;20422;-80
2023/10/21 03:33:31;;;;;;;132.75;36.30;;;8.60;99.90;;;8.59;100.00;97562.91;5032209;28;20041;-79
2023/10/21 03:36:07;;;;;;;123.38;34.78;;;8.60;99.90;;;8.66;100.00;97566.13;5033031;28;20033;-80
2023/10/21 03:38:33;;;;;;;114.13;36.15;;;8.60;99.90;;;8.72;100.00;97561.47;5032356;28;20047;-78
2023/10/21 03:41:08;;;;;;;124.90;35.05;;;8.60;99.90;;;8.82;100.00;97564.13;5032064;28;20038;-80
2023/10/21 03:43:34;;;;;;;105.07;34.15;;;8.70;99.90;;;8.82;100.00;97580.44;5032647;28;20025;-79
2023/10/21 03:46:20;;;;;;;119.18;34.78;;;8.70;99.90;;;8.84;100.00;97597.28;5044207;28;20048;-80
2023/10/21 03:48:46;;;;;;;96.93;32.53;;;8.70;99.90;;;8.85;100.00;97585.31;5028641;28;20029;-80
2023/10/21 03:51:12;;;;;;;117.20;35.45;;;8.70;99.90;;;8.89;100.00;97586.41;5032427;28;20040;-79
2023/10/21 03:53:43;;;;;;;123.90;34.45;;;8.80;99.90;;;8.87;100.00;97594.00;5032262;28;20098;-80
2023/10/21 03:56:09;;;;;;;117.72;34.50;;;8.80;99.90;;;8.85;100.00;97581.78;5031709;28;20029;-80
2023/10/21 03:58:37;;;;;;;137.80;34.95;;;8.80;99.90;;;8.87;100.00;97598.63;5031975;28;20090;-81
2023/10/21 04:01:04;;;;;;;117.45;32.67;;;8.80;99.90;;;8.84;100.00;97585.59;5030458;28;20044;-82
2023/10/21 04:03:31;;;;;;;98.25;34.17;;;8.80;99.90;;;8.87;100.00;97595.91;5032136;28;20029;-81
2023/10/21 04:05:58;;;;;;;109.68;33.55;;;8.80;99.90;;;8.92;100.00;97596.72;5032790;28;20045;-83
2023/10/21 04:08:25;;;;;;;94.80;31.45;;;8.80;99.90;;;8.96;100.00;97585.28;5032282;28;20083;-82
2023/10/21 04:10:54;;;;;;;106.43;32.72;;;8.90;99.90;;;9.04;100.00;97588.22;5032207;28;20049;-81
2023/10/21 04:13:21;;;;;;;105.97;31.83;;;8.90;99.90;;;9.07;100.00;97595.81;5025690;28;20121;-80
2023/10/21 04:15:47;;;;;;;117.38;33.30;;;8.90;99.90;;;9.09;100.00;97595.50;5031961;28;20080;-81
2023/10/21 04:18:13;;;;;;;133.25;33.45;;;9.00;99.90;;;9.11;100.00;97604.19;5032005;28;20105;-81
2023/10/21 04:20:39;;;;;;;138.90;32.42;;;9.00;99.90;;;9.13;100.00;97621.03;5033204;28;20054;-80
2023/10/21 04:23:05;;;;;;;113.43;31.67;;;8.90;99.90;;;9.13;100.00;97625.69;5026115;28;20164;-79
2023/10/21 04:25:31;;;;;;;101.85;32.47;;;9.00;99.90;;;9.14;100.00;97619.16;5030906;28;20046;-80
2023/10/21 04:27:57;;;;;;;103.88;32.65;;;9.00;99.90;;;9.17;100.00;97624.03;5036550;28;20038;-79
2023/10/21 04:30:25;;;;;;;82.47;30.38;;;9.00;99.90;;;9.22;100.00;97621.25;5039247;28;20098;-80
2023/10/21 04:32:51;;;;;;;90.70;31.60;;;9.00;99.90;;;9.21;100.00;97627.81;5032322;28;20046;-80
2023/10/21 04:35:19;;;;;;;78.15;29.20;;;9.00;99.90;;;9.22;100.00;97621.25;5025926;28;20801;-80
2023/10/21 04:37:45;;;;;;;78.13;29.27;;;9.10;99.90;;;9.29;100.00;97629.13;5030375;28;20170;-80
2023/10/21 04:40:11;;;;;;;133.43;32.10;;;9.10;99.90;;;9.26;100.00;97640.56;5031386;28;20052;-80
2023/10/21 04:42:38;;;;;;;79.82;28.95;;;9.10;99.90;;;9.31;100.00;97638.63;5030796;28;20033;-80
2023/10/21 04:45:13;;;;;;;83.65;28.95;;;9.10;99.90;;;9.31;100.00;97640.53;5031302;28;20496;-80
2023/10/21 04:47:39;;;;;;;78.38;27.77;;;9.10;99.90;;;9.33;100.00;97651.94;5036597;28;20378;-80
2023/10/21 04:50:05;;;;;;;116.28;30.13;;;9.10;99.90;;;9.31;100.00;97648.69;5029463;28;20051;-80
2023/10/21 04:52:32;;;;;;;82.43;29.25;;;9.10;99.90;;;9.32;100.00;97653.84;5029108;28;20551;-80
2023/10/21 04:54:57;;;;;;;88.35;28.23;;;9.10;99.90;;;9.33;100.00;97650.03;5028009;28;20050;-80
2023/10/21 04:57:23;;;;;;;88.60;28.20;;;9.10;99.90;;;9.29;100.00;97649.00;5047063;28;20389;-80
2023/10/21 04:59:49;;;;;;;93.95;28.92;;;9.10;99.90;;;9.37;100.00;97663.09;5029120;28;20164;-78
2023/10/21 05:02:15;;;;;;;134.88;29.95;;;9.10;99.90;;;9.36;100.00;97659.53;5030948;28;20045;-80
2023/10/21 05:04:41;;;;;;;93.75;29.63;;;9.10;99.90;;;9.31;100.00;97668.56;5031045;28;20034;-80
2023/10/21 05:07:07;;;;;;;104.90;30.65;;;9.10;99.90;;;9.32;100.00;97669.34;5030599;28;20041;-79
2023/10/21 05:09:33;;;;;;;100.47;31.75;;;9.20;99.90;;;9.39;100.00;97674.50;5030277;28;20049;-79
2023/10/21 05:12:02;;;;;;;88.88;32.15;;;9.20;99.90;;;9.42;100.00;97668.47;5029949;28;20038;-79
2023/10/21 05:14:28;;;;;;;100.35;31.92;;;9.20;99.90;;;9.45;100.00;97673.34;5029986;28;20034;-80
2023/10/21 05:16:53;;;;;;;99.28;33.33;;;9.20;99.90;;;9.42;100.00;97676.66;5030931;28;20037;-79
2023/10/21 05:19:19;;;;;;;101.75;33.72;;;9.30;99.90;;;9.39;100.00;97669.84;5029176;28;20382;-79
2023/10/21 05:21:45;;;;;;;104.10;33.35;;;9.30;99.90;;;9.42;100.00;97663.88;5027807;28;20477;-80
2023/10/21 05:24:11;;;;;;;99.18;33.60;;;9.30;99.90;;;9.48;100.00;97670.06;5019247;28;20045;-79
2023/10/21 05:26:37;;;;;;;92.68;34.00;;;9.40;99.90;;;9.58;100.00;97685.53;5035016;28;20132;-80
2023/10/21 05:29:03;;;;;;;98.03;31.95;;;9.40;99.90;;;9.58;100.00;97680.91;5027581;28;20092;-81
2023/10/21 05:31:29;;;;;;;82.22;30.60;;;9.40;99.90;;;9.69;100.00;97683.53;5031889;28;20049;-81
2023/10/21 05:33:57;;;;;;;89.47;33.22;;;9.50;99.90;;;9.72;100.00;97699.31;5025294;28;20037;-82
2023/10/21 05:36:24;;;;;;;95.90;31.90;;;9.40;99.90;;;9.73;100.00;97701.75;5030626;28;20104;-81
2023/10/21 05:38:50;;;;;;;79.50;30.70;;;9.50;99.90;;;9.74;100.00;97708.00;5030264;28;20040;-81
2023/10/21 05:41:16;;;;;;;84.65;31.23;;;9.50;99.90;;;9.77;100.00;97707.44;5029991;28;20400;-80
2023/10/21 05:43:41;;;;;;;71.82;28.58;;;9.50;99.90;;;9.81;100.00;97724.81;5029270;28;20041;-80
2023/10/21 05:46:07;;;;;;;77.18;28.88;;;9.60;99.90;;;9.82;100.00;97729.19;5031051;28;20037;-80
2023/10/21 05:48:33;;;;;;;78.10;28.02;;;9.60;99.90;;;9.83;100.00;97733.53;5030222;28;20053;-81
2023/10/21 05:51:01;;;;;;;78.15;27.52;;;9.60;99.90;;;9.84;100.00;97739.78;5030784;28;20493;-81
2023/10/21 05:53:27;;;;;;;163.40;31.83;;;9.60;99.90;;;9.74;100.00;97741.50;5029492;28;20045;-82
2023/10/21 05:55:58;;;;;;;124.43;31.88;;;9.60;99.90;;;9.77;100.00;97756.44;5005494;28;20137;-80
2023/10/21 05:58:24;;;;;;;84.43;30.05;;;9.50;99.90;;;9.70;100.00;97766.84;5043911;28;20045;-80
2023/10/21 06:00:50;;;;;;;92.88;30.58;;;9.50;99.90;;;9.66;100.00;97766.56;5030357;28;20049;-79
2023/10/21 06:03:16;;;;;;;82.63;31.80;;;9.50;99.90;;;9.62;100.00;97754.63;5030185;28;20465;-80
2023/10/21 06:05:42;;;;;;;88.25;32.92;;;9.50;99.90;;;9.68;100.00;97763.59;5033580;28;20058;-80
2023/10/21 06:08:08;;;;;;;109.30;34.65;;;9.50;99.90;;;9.72;100.00;97765.47;5029527;28;20077;-79
2023/10/21 06:10:35;;;;;;;106.13;33.72;;;9.60;99.90;;;9.76;100.00;97765.69;5029898;28;20041;-79
2023/10/21 06:13:01;;;;;;;98.77;33.57;;;9.60;99.90;;;9.83;100.00;97773.56;5029981;28;20043;-79
2023/10/21 06:15:27;;;;;;;102.70;33.75;;;9.60;99.90;;;9.83;100.00;97765.38;5029322;28;20036;-79
2023/10/21 06:17:53;;;;;;;106.72;32.67;;;9.60;99.90;;;9.89;100.00;97770.53;5029699;28;20412;-79
2023/10/21 06:20:19;;;;;;;87.15;32.00;;;9.60;99.90;;;9.95;100.00;97775.94;5030028;28;20034;-79
2023/10/21 06:22:45;;;;;;;97.68;33.22;;;9.70;99.90;;;9.93;100.00;97781.66;5029647;28;20088;-79
2023/10/21 06:25:10;;;;;;;75.93;29.13;;;9.70;99.90;;;9.97;100.00;97788.19;5029957;28;20469;-79
2023/10/21 06:27:37;;;;;;;85.05;31.02;;;9.70;99.90;;;10.02;100.00;97798.22;5029691;28;20033;-79
2023/10/21 06:30:04;;;;;;;104.32;32.50;;;9.70;99.90;;;9.99;100.00;97802.31;5028954;28;20038;-79
2023/10/21 06:32:30;;;;;;;93.70;33.03;;;9.70;99.90;;;9.93;100.00;97798.81;5029800;28;20049;-78
2023/10/21 06:34:56;;;;;;;94.40;34.47;;;9.80;99.90;;;9.92;100.00;97791.75;5029677;28;20037;-79
2023/10/21 06:37:22;;;;;;;97.93;33.67;;;9.80;99.90;;;10.00;100.00;97803.13;5028152;28;20091;-79
2023/10/21 06:39:48;;;;;;;100.03;35.40;;;9.80;99.90;;;9.97;100.00;97792.81;5029812;28;20037;-81
2023/10/21 06:42:14;;;;;;;91.97;35.03;;;9.90;99.90;;;10.00;100.00;97793.06;5029235;28;20033;-80
2023/10/21 06:44:40;;;;;;;102.60;35.40;;;9.90;99.90;;;10.06;100.00;97793.81;5029043;28;20436;-79
2023/10/21 06:47:06;;;;;;;103.68;36.45;;;9.90;99.90;;;10.09;100.00;97793.28;5028123;28;20088;-82
2023/10/21 06:49:32;;;;;;;93.30;35.17;;;9.90;99.90;;;10.14;100.00;97795.13;5028058;28;20095;-81
2023/10/21 06:51:58;;;;;;;108.25;36.75;;;10.00;99.90;;;10.15;100.00;97797.59;5027947;28;20029;-79
2023/10/21 06:54:24;;;;;;;98.78;35.38;;;10.00;99.90;;;10.20;100.00;97802.16;5025919;28;20060;-80
2023/10/21 06:56:50;;;;;;;99.75;34.85;;;10.10;99.90;;;10.24;100.00;97814.16;5032942;28;20397;-78
2023/10/21 06:59:16;;;;;;;93.95;35.65;;;10.10;99.90;;;10.31;100.00;97802.91;5028441;28;20069;-80
2023/10/21 07:01:41;;;;;;;101.68;36.83;;;10.10;99.90;;;10.34;100.00;97807.78;5034610;28;20030;-78
2023/10/21 07:04:11;;;;;;;108.20;36.47;;;10.10;99.90;;;10.40;100.00;97814.00;5032902;28;20331;-79
2023/10/21 07:06:38;;;;;;;103.82;36.40;;;10.20;99.90;;;10.42;100.00;97814.56;5032686;28;20048;-78
2023/10/21 07:09:04;;;;;;;104.85;36.47;;;10.30;99.90;;;10.46;100.00;97831.97;5032745;28;20496;-78
2023/10/21 07:11:30;;;;;;;96.50;35.00;;;10.30;99.90;;;10.48;100.00;97827.06;5030089;28;20057;-79
2023/10/21 07:13:56;;;;;;;101.90;35.05;;;10.30;99.90;;;10.53;100.00;97840.66;5032874;28;20459;-79
2023/10/21 07:16:22;;;;;;;99.30;36.28;;;10.30;99.90;;;10.56;100.00;97852.88;5033178;28;20088;-80
2023/10/21 07:18:48;;;;;;;97.97;35.10;;;10.40;99.90;;;10.61;100.00;97852.88;5022081;28;20095;-78
2023/10/21 07:21:14;;;;;;;90.10;35.30;;;10.40;99.90;;;10.61;100.00;97856.38;5037584;28;20095;-79
2023/10/21 07:23:40;;;;;;;96.45;36.92;;;10.40;99.90;;;10.64;100.00;97866.72;5032112;28;20120;-78
2023/10/21 07:26:07;;;;;;;105.55;38.05;;;10.40;99.90;;;10.63;100.00;97869.75;5032237;28;20132;-79
2023/10/21 07:28:33;;;;;;;97.97;36.53;;;10.40;99.90;;;10.64;100.00;97877.63;5038589;28;20029;-80
2023/10/21 07:31:00;;;;;;;95.97;36.53;;;10.40;99.90;;;10.65;100.00;97878.47;5037019;28;20041;-77
2023/10/21 07:33:27;;;;;;;95.15;37.83;;;10.50;99.90;;;10.74;100.00;97878.63;5033162;28;20033;-80
2023/10/21 07:35:53;;;;;;;96.93;37.50;;;10.50;99.90;;;10.74;100.00;97884.91;5047472;28;20099;-82
2023/10/21 07:38:20;;;;;;;92.50;37.30;;;10.60;99.90;;;10.82;100.00;97894.41;5032193;28;20045;-80
2023/10/21 07:40:47;;;;;;;87.88;37.17;;;10.60;99.90;;;10.84;100.00;97905.00;5033154;28;20537;-80
2023/10/21 07:43:17;;;;;;;82.63;36.30;;;10.70;99.90;;;10.88;100.00;97908.81;5032079;28;20042;-81
2023/10/21 07:45:44;;;;;;;95.20;36.33;;;10.70;99.90;;;10.90;100.00;97914.78;5028508;28;20038;-79
2023/10/21 07:48:10;;;;;;;84.80;35.47;;;10.70;99.90;;;10.90;100.00;97922.97;5032454;28;20037;-79
2023/10/21 07:50:37;;;;;;;87.18;35.05;;;10.70;99.90;;;10.93;100.00;97923.19;5032140;28;20033;-79
2023/10/21 07:53:03;;;;;;;82.90;35.15;;;10.80;99.90;;;11.01;100.00;97932.69;5032494;28;20087;-79
2023/10/21 07:55:29;;;;;;;85.72;35.50;;;10.80;99.90;;;11.01;100.00;97945.53;5032548;28;20060;-79
2023/10/21 07:57:56;;;;;;;84.93;35.22;;;10.80;99.90;;;11.10;100.00;97943.81;5032575;28;20393;-79
2023/10/21 08:00:22;;;;;;;79.65;34.17;;;10.90;99.90;;;11.17;100.00;97951.66;5032345;28;20044;-81
2023/10/21 08:02:48;;;;;;;84.00;36.33;;;10.90;99.90;;;11.13;100.00;97958.78;5033950;28;20041;-82
2023/10/21 08:05:15;;;;;;;86.70;35.42;;;10.90;99.90;;;11.14;100.00;97965.84;5032681;28;20033;-83
2023/10/21 08:07:41;;;;;;;80.43;34.38;;;10.90;99.90;;;11.16;100.00;97980.06;5032327;28;20492;-85
2023/10/21 08:10:09;;;;;;;83.78;35.75;;;11.00;99.90;;;11.17;100.00;97990.66;5047915;28;20034;-83
2023/10/21 08:12:36;;;;;;;74.70;34.92;;;11.00;99.90;;;11.21;100.00;97997.19;5034925;28;20433;-84
2023/10/21 08:15:08;;;;;;;72.32;33.55;;;10.90;99.90;;;11.21;100.00;98010.81;5031996;28;20045;-79
2023/10/21 08:17:35;;;;;;;72.10;33.13;;;11.00;99.90;;;11.16;100.00;98023.72;5031422;28;20441;-79
2023/10/21 08:20:01;;;;;;;76.13;33.60;;;10.90;99.90;;;11.22;100.00;98036.22;5031341;28;20075;-78
2023/10/21 08:22:28;;;;;;;71.40;32.67;;;11.00;99.90;;;11.22;100.00;98038.94;5030944;28;20029;-78
2023/10/21 08:24:54;;;;;;;71.85;32.72;;;11.00;99.90;;;11.14;100.00;98042.25;5031572;28;20397;-78
2023/10/21 08:27:20;;;;;;;67.70;31.58;;;11.00;99.90;;;11.26;100.00;98044.63;5031550;28;20316;-80
2023/10/21 08:29:47;;;;;;;75.97;34.47;;;11.10;99.90;;;11.26;100.00;98045.47;5031618;28;20038;-79
2023/10/21 08:32:13;;;;;;;78.10;34.50;;;11.10;99.90;;;11.26;100.00;98040.00;5035781;28;20052;-80
2023/10/21 08:34:38;;;;;;;75.95;34.97;;;11.10;99.90;;;11.45;100.00;98042.84;5031473;28;20033;-79
2023/10/21 08:37:05;;;;;;;74.07;34.88;;;11.30;99.90;;;11.51;100.00;98046.34;5029522;28;20041;-79
2023/10/21 08:39:31;;;;;;;74.68;34.42;;;11.40;99.90;;;11.64;100.00;98056.59;5029078;28;20465;-80
2023/10/21 08:41:58;;;;;;;70.03;33.50;;;11.50;99.90;;;11.78;100.00;98067.66;5030616;28;20041;-78
2023/10/21 08:44:24;;;;;;;72.00;33.58;;;11.60;99.90;;;11.74;100.00;98080.25;5029222;28;20069;-79
2023/10/21 08:46:54;;;;;;;62.83;31.73;;;11.60;99.90;;;11.81;100.00;98096.31;5029863;28;20092;-78
2023/10/21 08:49:20;;;;;;;63.08;30.55;;;11.70;99.90;;;11.74;100.00;98098.56;5030864;28;20040;-78
2023/10/21 08:51:49;;;;;;;53.75;27.55;;;11.70;99.90;;;11.95;100.00;98099.19;5025290;28;20043;-79
2023/10/21 08:54:17;;;;;;;42.65;23.90;;;11.80;99.90;;;12.02;100.00;98104.34;5030537;28;20128;-78
2023/10/21 08:56:43;;;;;;;41.53;22.80;;;11.90;99.90;;;12.21;100.00;98096.22;5031366;28;20091;-79
2023/10/21 08:59:09;;;;;;;40.72;21.83;;;12.00;99.90;;;12.32;100.00;98088.72;5030030;28;20026;-79
2023/10/21 09:01:36;;;;;;;39.25;20.92;;;12.20;99.90;;;12.63;100.00;98107.50;5027514;28;20532;-78
2023/10/21 09:04:03;;;;;;;31.87;19.07;;;12.30;99.90;;;12.56;100.00;98088.72;5027703;28;20132;-78
2023/10/21 09:06:30;;;;;;;28.55;16.70;;;12.60;99.90;;;12.80;100.00;98134.38;5028035;28;20045;-78
2023/10/21 09:08:56;;;;;;;24.30;14.75;;;12.70;99.90;;;12.99;100.00;98150.81;5032663;28;20073;-80
2023/10/21 09:11:27;;;;;;;19.45;13.13;;;12.80;99.90;;;13.20;100.00;98164.22;5027984;28;20041;-78
2023/10/21 09:13:58;;;;;;;17.38;11.23;;;12.90;99.90;;;13.50;100.00;98181.34;5027582;28;20051;-79
2023/10/21 09:16:30;;;;;;;12.68;9.48;;;13.20;99.90;;;13.86;100.00;98196.44;5027081;28;20041;-79
2023/10/21 09:19:06;;;;;;;11.25;7.68;;;13.50;99.90;;;14.08;100.00;98226.78;5027299;28;20042;-81
2023/10/21 09:21:38;;;;;;;10.40;7.63;;;13.80;99.90;;;14.19;100.00;98262.25;5026603;28;20033;-79
2023/10/21 09:24:09;;;;;;;7.88;5.90;;;13.90;99.90;;;14.12;100.00;98338.56;5025427;28;21433;-78
2023/10/21 09:26:45;;;;;;;7.70;5.20;;;13.90;99.90;;;14.40;100.00;98353.25;5026374;28;20401;-79
2023/10/21 09:29:13;;;;;;;6.85;4.40;;;;;;;14.76;100.00;98371.09;5026206;28;21921;-79
2023/10/21 09:31:53;;;;;;;4.90;3.55;;;;;;;14.82;100.00;98413.81;5026135;28;20048;-79
2023/10/21 09:34:25;;;;;;;5.85;3.17;;;;;;;15.20;100.00;98456.81;5022005;28;20045;-79
2023/10/21 09:36:52;;;;;;;4.63;2.78;;;;;;;15.35;100.00;98499.69;5027859;28;20132;-80
2023/10/21 09:39:18;;;;;;;4.13;1.88;;;;;;;15.40;100.00;98516.09;5028100;28;20056;-79
2023/10/21 09:41:47;;;;;;;4.32;1.73;;;;;;;15.50;100.00;98537.06;5027392;28;20130;-80
2023/10/21 09:44:15;;;;;;;2.50;1.60;;;;;;;15.62;100.00;98567.63;5027610;28;20044;-79
2023/10/21 09:46:44;;;;;;;3.45;1.40;;;;;;;15.55;100.00;98586.44;5027813;28;20171;-79
2023/10/21 09:49:13;;;;;;;3.55;1.20;;;;;;;15.50;100.00;98583.78;5027204;28;20045;-80
2023/10/21 09:51:56;;;;;;;2.88;1.38;;;;;;;15.63;100.00;98607.75;5027853;28;20045;-79
2023/10/21 09:54:42;;;;;;;2.85;1.50;;;;;;;15.76;100.00;98617.16;5027460;28;20128;-79
2023/10/21 09:57:12;;;;;;;2.20;1.33;;;;;;;15.83;100.00;98616.75;5028506;28;20095;-80
2023/10/21 09:59:39;;;;;;;2.78;1.33;;;;;;;15.89;100.00;98626.56;5027083;28;20033;-80
2023/10/21 10:02:07;;;;;;;1.83;0.95;;;;;;;15.81;100.00;98636.31;5027362;28;20449;-79
2023/10/21 10:04:37;;;;;;;1.20;1.00;;;;;;;15.83;100.00;98644.25;5027298;28;20477;-80
2023/10/21 10:07:07;;;;;;;3.95;1.27;;;;;;;15.73;100.00;98644.44;5027875;28;20045;-79
2023/10/21 10:09:36;;;;;;;3.28;1.15;;;;;;;15.66;100.00;98640.16;5021843;28;20092;-81